sensor_id;sensor_type;location;lat;lon;timestamp;P1;durP1;ratioP1;P2;durP2;ratioP2
36833;SDS011;48003;52.084;5.224;2022-08-18T00:01:15;20.7;;;18.61;;
36833;SDS011;48003;52.084;5.224;2022-08-18T00:03:00;19.41;;;17.5;;
36833;SDS011;48003;52.084;5.224;2022-08-18T00:04:40;21.3;;;19.11;;
36833;SDS011;48003;52.084;5.224;2022-08-18T00:06:17;19.41;;;17.41;;
36833;SDS011;48003;52.084;5.224;2022-08-18T00:09:31;20.9;;;18.8;;
36833;SDS011;48003;52.084;5.224;2022-08-18T00:11:10;19.91;;;17.91;;
36833;SDS011;48003;52.084;5.224;2022-08-18T00:12:47;20.7;;;18.7;;
36833;SDS011;48003;52.084;5.224;2022-08-18T00:16:00;18.0;;;16.4;;
36833;SDS011;48003;52.084;5.224;2022-08-18T00:17:37;17.2;;;15.5;;
36833;SDS011;48003;52.084;5.224;2022-08-18T00:19:14;17.61;;;15.9;;
36833;SDS011;48003;52.084;5.224;2022-08-18T00:22:27;17.2;;;15.6;;
36833;SDS011;48003;52.084;5.224;2022-08-18T00:24:04;16.8;;;15.2;;
36833;SDS011;48003;52.084;5.224;2022-08-18T00:25:41;20.11;;;15.9;;
36833;SDS011;48003;52.084;5.224;2022-08-18T00:27:21;16.7;;;15.1;;
36833;SDS011;48003;52.084;5.224;2022-08-18T00:30:38;17.2;;;15.5;;
36833;SDS011;48003;52.084;5.224;2022-08-18T00:32:16;16.5;;;14.8;;
36833;SDS011;48003;52.084;5.224;2022-08-18T00:33:54;17.91;;;16.11;;
36833;SDS011;48003;52.084;5.224;2022-08-18T00:35:32;18.91;;;17.0;;
36833;SDS011;48003;52.084;5.224;2022-08-18T00:38:46;20.11;;;18.3;;
36833;SDS011;48003;52.084;5.224;2022-08-18T00:40:23;20.6;;;18.7;;
36833;SDS011;48003;52.084;5.224;2022-08-18T00:42:11;16.8;;;15.2;;
36833;SDS011;48003;52.084;5.224;2022-08-18T00:45:30;17.7;;;16.0;;
36833;SDS011;48003;52.084;5.224;2022-08-18T00:47:14;17.0;;;15.2;;
36833;SDS011;48003;52.084;5.224;2022-08-18T00:48:51;15.5;;;13.9;;
36833;SDS011;48003;52.084;5.224;2022-08-18T00:50:30;16.3;;;14.7;;
36833;SDS011;48003;52.084;5.224;2022-08-18T00:53:49;16.11;;;14.5;;
36833;SDS011;48003;52.084;5.224;2022-08-18T00:55:32;19.8;;;15.5;;
36833;SDS011;48003;52.084;5.224;2022-08-18T00:57:10;16.7;;;15.0;;
36833;SDS011;48003;52.084;5.224;2022-08-18T00:58:50;16.4;;;14.0;;
36833;SDS011;48003;52.084;5.224;2022-08-18T01:02:12;14.1;;;12.7;;
36833;SDS011;48003;52.084;5.224;2022-08-18T01:03:57;17.7;;;14.6;;
36833;SDS011;48003;52.084;5.224;2022-08-18T01:05:42;14.5;;;13.0;;
36833;SDS011;48003;52.084;5.224;2022-08-18T01:07:29;17.0;;;15.2;;
36833;SDS011;48003;52.084;5.224;2022-08-18T01:09:12;19.41;;;16.2;;
36833;SDS011;48003;52.084;5.224;2022-08-18T01:12:26;17.91;;;16.11;;
36833;SDS011;48003;52.084;5.224;2022-08-18T01:14:03;23.3;;;20.8;;
36833;SDS011;48003;52.084;5.224;2022-08-18T01:15:42;22.3;;;20.0;;
36833;SDS011;48003;52.084;5.224;2022-08-18T01:21:50;20.0;;;18.0;;
36833;SDS011;48003;52.084;5.224;2022-08-18T01:23:48;19.8;;;17.8;;
36833;SDS011;48003;52.084;5.224;2022-08-18T01:28:13;20.2;;;18.2;;
36833;SDS011;48003;52.084;5.224;2022-08-18T01:29:55;18.61;;;16.7;;
36833;SDS011;48003;52.084;5.224;2022-08-18T01:33:14;17.91;;;16.2;;
36833;SDS011;48003;52.084;5.224;2022-08-18T01:34:51;17.3;;;15.1;;
36833;SDS011;48003;52.084;5.224;2022-08-18T01:36:28;15.6;;;14.1;;
36833;SDS011;48003;52.084;5.224;2022-08-18T01:39:41;16.9;;;15.3;;
36833;SDS011;48003;52.084;5.224;2022-08-18T01:41:19;18.91;;;17.0;;
36833;SDS011;48003;52.084;5.224;2022-08-18T01:42:57;18.3;;;16.5;;
36833;SDS011;48003;52.084;5.224;2022-08-18T01:44:34;17.2;;;15.7;;
36833;SDS011;48003;52.084;5.224;2022-08-18T01:47:49;16.9;;;15.2;;
36833;SDS011;48003;52.084;5.224;2022-08-18T01:49:27;15.4;;;13.8;;
36833;SDS011;48003;52.084;5.224;2022-08-18T01:51:04;16.3;;;14.7;;
36833;SDS011;48003;52.084;5.224;2022-08-18T01:54:20;16.3;;;14.8;;
36833;SDS011;48003;52.084;5.224;2022-08-18T01:55:57;17.3;;;15.5;;
36833;SDS011;48003;52.084;5.224;2022-08-18T01:57:35;16.5;;;14.9;;
36833;SDS011;48003;52.084;5.224;2022-08-18T01:59:13;15.2;;;13.8;;
36833;SDS011;48003;52.084;5.224;2022-08-18T02:02:28;18.0;;;16.3;;
36833;SDS011;48003;52.084;5.224;2022-08-18T02:04:08;18.8;;;16.8;;
36833;SDS011;48003;52.084;5.224;2022-08-18T02:05:47;18.61;;;16.9;;
36833;SDS011;48003;52.084;5.224;2022-08-18T02:09:02;16.5;;;15.0;;
36833;SDS011;48003;52.084;5.224;2022-08-18T02:10:40;19.5;;;17.61;;
36833;SDS011;48003;52.084;5.224;2022-08-18T02:12:17;19.3;;;17.5;;
36833;SDS011;48003;52.084;5.224;2022-08-18T02:13:53;20.0;;;18.0;;
36833;SDS011;48003;52.084;5.224;2022-08-18T02:17:07;24.1;;;20.2;;
36833;SDS011;48003;52.084;5.224;2022-08-18T02:18:45;21.5;;;19.3;;
36833;SDS011;48003;52.084;5.224;2022-08-18T02:20:22;20.2;;;18.11;;
36833;SDS011;48003;52.084;5.224;2022-08-18T02:23:36;23.4;;;20.5;;
36833;SDS011;48003;52.084;5.224;2022-08-18T02:25:15;24.5;;;22.0;;
36833;SDS011;48003;52.084;5.224;2022-08-18T02:26:53;24.5;;;22.0;;
36833;SDS011;48003;52.084;5.224;2022-08-18T02:28:29;25.3;;;22.6;;
36833;SDS011;48003;52.084;5.224;2022-08-18T02:31:49;26.7;;;23.4;;
36833;SDS011;48003;52.084;5.224;2022-08-18T02:33:25;25.6;;;23.0;;
36833;SDS011;48003;52.084;5.224;2022-08-18T02:35:02;25.3;;;22.9;;
36833;SDS011;48003;52.084;5.224;2022-08-18T02:38:16;25.0;;;22.5;;
36833;SDS011;48003;52.084;5.224;2022-08-18T02:39:52;28.0;;;23.8;;
36833;SDS011;48003;52.084;5.224;2022-08-18T02:41:28;26.7;;;24.0;;
36833;SDS011;48003;52.084;5.224;2022-08-18T02:44:42;24.1;;;21.7;;
36833;SDS011;48003;52.084;5.224;2022-08-18T02:46:19;19.7;;;17.91;;
36833;SDS011;48003;52.084;5.224;2022-08-18T02:47:56;21.0;;;18.7;;
36833;SDS011;48003;52.084;5.224;2022-08-18T02:49:32;22.7;;;19.5;;
36833;SDS011;48003;52.084;5.224;2022-08-18T02:52:49;20.0;;;18.11;;
36833;SDS011;48003;52.084;5.224;2022-08-18T02:54:25;23.5;;;20.3;;
36833;SDS011;48003;52.084;5.224;2022-08-18T02:56:04;23.5;;;20.3;;
36833;SDS011;48003;52.084;5.224;2022-08-18T02:59:24;25.3;;;22.6;;
36833;SDS011;48003;52.084;5.224;2022-08-18T03:01:02;24.0;;;21.6;;
36833;SDS011;48003;52.084;5.224;2022-08-18T03:02:38;22.8;;;20.5;;
36833;SDS011;48003;52.084;5.224;2022-08-18T03:04:16;20.8;;;18.7;;
36833;SDS011;48003;52.084;5.224;2022-08-18T03:07:33;19.11;;;17.0;;
36833;SDS011;48003;52.084;5.224;2022-08-18T03:09:09;17.2;;;15.5;;
36833;SDS011;48003;52.084;5.224;2022-08-18T03:10:50;19.7;;;17.61;;
36833;SDS011;48003;52.084;5.224;2022-08-18T03:12:27;17.7;;;16.0;;
36833;SDS011;48003;52.084;5.224;2022-08-18T03:15:41;19.2;;;17.3;;
36833;SDS011;48003;52.084;5.224;2022-08-18T03:17:17;21.1;;;18.91;;
36833;SDS011;48003;52.084;5.224;2022-08-18T03:22:07;19.8;;;17.7;;
36833;SDS011;48003;52.084;5.224;2022-08-18T03:23:44;23.4;;;21.0;;
36833;SDS011;48003;52.084;5.224;2022-08-18T03:25:20;21.3;;;19.0;;
36833;SDS011;48003;52.084;5.224;2022-08-18T03:28:33;19.8;;;18.0;;
36833;SDS011;48003;52.084;5.224;2022-08-18T03:30:10;19.41;;;17.41;;
36833;SDS011;48003;52.084;5.224;2022-08-18T03:31:47;19.2;;;17.41;;
36833;SDS011;48003;52.084;5.224;2022-08-18T03:33:25;17.3;;;15.6;;
36833;SDS011;48003;52.084;5.224;2022-08-18T03:36:39;17.2;;;15.5;;
36833;SDS011;48003;52.084;5.224;2022-08-18T03:38:15;17.0;;;15.3;;
36833;SDS011;48003;52.084;5.224;2022-08-18T03:39:52;17.91;;;16.2;;
36833;SDS011;48003;52.084;5.224;2022-08-18T03:43:05;16.5;;;15.0;;
36833;SDS011;48003;52.084;5.224;2022-08-18T03:44:41;16.0;;;14.3;;
36833;SDS011;48003;52.084;5.224;2022-08-18T03:46:18;16.2;;;14.7;;
36833;SDS011;48003;52.084;5.224;2022-08-18T03:49:32;16.2;;;14.6;;
36833;SDS011;48003;52.084;5.224;2022-08-18T03:51:12;14.6;;;13.2;;
36833;SDS011;48003;52.084;5.224;2022-08-18T03:52:52;14.9;;;13.5;;
36833;SDS011;48003;52.084;5.224;2022-08-18T03:54:30;19.2;;;17.3;;
36833;SDS011;48003;52.084;5.224;2022-08-18T03:57:58;19.7;;;17.61;;
36833;SDS011;48003;52.084;5.224;2022-08-18T03:59:35;17.61;;;16.0;;
36833;SDS011;48003;52.084;5.224;2022-08-18T04:01:13;21.6;;;19.3;;
36833;SDS011;48003;52.084;5.224;2022-08-18T04:02:54;22.9;;;20.6;;
36833;SDS011;48003;52.084;5.224;2022-08-18T04:06:13;21.3;;;19.2;;
36833;SDS011;48003;52.084;5.224;2022-08-18T04:07:50;22.4;;;20.11;;
36833;SDS011;48003;52.084;5.224;2022-08-18T04:09:27;24.8;;;21.9;;
36833;SDS011;48003;52.084;5.224;2022-08-18T04:11:05;22.2;;;19.91;;
36833;SDS011;48003;52.084;5.224;2022-08-18T04:14:19;26.0;;;22.9;;
36833;SDS011;48003;52.084;5.224;2022-08-18T04:15:59;26.9;;;24.0;;
36833;SDS011;48003;52.084;5.224;2022-08-18T04:17:35;25.9;;;23.1;;
36833;SDS011;48003;52.084;5.224;2022-08-18T04:20:51;27.2;;;24.3;;
36833;SDS011;48003;52.084;5.224;2022-08-18T04:22:28;29.9;;;26.8;;
36833;SDS011;48003;52.084;5.224;2022-08-18T04:24:06;27.6;;;24.8;;
36833;SDS011;48003;52.084;5.224;2022-08-18T04:25:44;28.0;;;25.1;;
36833;SDS011;48003;52.084;5.224;2022-08-18T04:28:59;29.7;;;26.5;;
36833;SDS011;48003;52.084;5.224;2022-08-18T04:30:37;28.2;;;24.9;;
36833;SDS011;48003;52.084;5.224;2022-08-18T04:32:14;30.1;;;26.3;;
36833;SDS011;48003;52.084;5.224;2022-08-18T04:35:29;28.8;;;26.0;;
36833;SDS011;48003;52.084;5.224;2022-08-18T04:37:07;31.1;;;27.4;;
36833;SDS011;48003;52.084;5.224;2022-08-18T04:38:44;31.8;;;28.4;;
36833;SDS011;48003;52.084;5.224;2022-08-18T04:40:20;30.3;;;27.0;;
36833;SDS011;48003;52.084;5.224;2022-08-18T04:43:34;39.81;;;31.9;;
36833;SDS011;48003;52.084;5.224;2022-08-18T04:45:12;31.1;;;27.9;;
36833;SDS011;48003;52.084;5.224;2022-08-18T04:46:51;34.4;;;29.9;;
36833;SDS011;48003;52.084;5.224;2022-08-18T04:50:11;32.1;;;28.6;;
36833;SDS011;48003;52.084;5.224;2022-08-18T04:53:44;30.5;;;27.4;;
36833;SDS011;48003;52.084;5.224;2022-08-18T04:55:21;29.6;;;26.0;;
36833;SDS011;48003;52.084;5.224;2022-08-18T04:58:34;29.2;;;26.0;;
36833;SDS011;48003;52.084;5.224;2022-08-18T05:00:11;28.4;;;25.2;;
36833;SDS011;48003;52.084;5.224;2022-08-18T05:01:49;30.3;;;27.2;;
36833;SDS011;48003;52.084;5.224;2022-08-18T05:03:26;30.2;;;27.0;;
36833;SDS011;48003;52.084;5.224;2022-08-18T05:06:41;34.21;;;30.7;;
36833;SDS011;48003;52.084;5.224;2022-08-18T05:08:21;29.5;;;26.5;;
36833;SDS011;48003;52.084;5.224;2022-08-18T05:09:57;29.5;;;26.6;;
36833;SDS011;48003;52.084;5.224;2022-08-18T05:13:15;27.8;;;25.0;;
36833;SDS011;48003;52.084;5.224;2022-08-18T05:14:53;31.9;;;28.5;;
36833;SDS011;48003;52.084;5.224;2022-08-18T05:16:30;33.21;;;29.5;;
36833;SDS011;48003;52.084;5.224;2022-08-18T05:18:11;30.9;;;27.0;;
36833;SDS011;48003;52.084;5.224;2022-08-18T05:21:25;31.2;;;27.9;;
36833;SDS011;48003;52.084;5.224;2022-08-18T05:23:01;30.5;;;27.5;;
36833;SDS011;48003;52.084;5.224;2022-08-18T05:24:38;31.4;;;28.2;;
36833;SDS011;48003;52.084;5.224;2022-08-18T05:27:52;30.2;;;27.0;;
36833;SDS011;48003;52.084;5.224;2022-08-18T05:29:33;30.3;;;27.1;;
36833;SDS011;48003;52.084;5.224;2022-08-18T05:31:11;32.1;;;28.6;;
36833;SDS011;48003;52.084;5.224;2022-08-18T05:32:50;28.3;;;25.5;;
36833;SDS011;48003;52.084;5.224;2022-08-18T05:36:03;28.8;;;25.9;;
36833;SDS011;48003;52.084;5.224;2022-08-18T05:37:50;30.4;;;27.3;;
36833;SDS011;48003;52.084;5.224;2022-08-18T05:39:41;31.7;;;28.4;;
36833;SDS011;48003;52.084;5.224;2022-08-18T05:41:33;31.0;;;27.7;;
36833;SDS011;48003;52.084;5.224;2022-08-18T05:43:12;33.21;;;29.6;;
36833;SDS011;48003;52.084;5.224;2022-08-18T05:46:31;34.0;;;30.3;;
36833;SDS011;48003;52.084;5.224;2022-08-18T05:48:24;37.6;;;33.3;;
36833;SDS011;48003;52.084;5.224;2022-08-18T05:50:02;34.4;;;30.4;;
36833;SDS011;48003;52.084;5.224;2022-08-18T05:51:44;34.5;;;29.6;;
36833;SDS011;48003;52.084;5.224;2022-08-18T05:56:46;30.9;;;27.6;;
36833;SDS011;48003;52.084;5.224;2022-08-18T05:58:29;30.9;;;27.7;;
36833;SDS011;48003;52.084;5.224;2022-08-18T06:00:12;29.9;;;26.9;;
36833;SDS011;48003;52.084;5.224;2022-08-18T06:03:40;33.21;;;29.6;;
36833;SDS011;48003;52.084;5.224;2022-08-18T06:05:23;31.6;;;28.4;;
36833;SDS011;48003;52.084;5.224;2022-08-18T06:07:04;30.7;;;27.5;;
36833;SDS011;48003;52.084;5.224;2022-08-18T06:08:46;32.4;;;28.3;;
36833;SDS011;48003;52.084;5.224;2022-08-18T06:10:45;29.2;;;26.2;;
36833;SDS011;48003;52.084;5.224;2022-08-18T06:12:26;29.6;;;26.5;;
36833;SDS011;48003;52.084;5.224;2022-08-18T06:15:47;29.6;;;26.4;;
36833;SDS011;48003;52.084;5.224;2022-08-18T06:17:42;30.7;;;26.4;;
36833;SDS011;48003;52.084;5.224;2022-08-18T06:19:48;27.1;;;24.2;;
36833;SDS011;48003;52.084;5.224;2022-08-18T06:21:37;28.2;;;23.0;;
36833;SDS011;48003;52.084;5.224;2022-08-18T06:23:24;26.3;;;22.0;;
36833;SDS011;48003;52.084;5.224;2022-08-18T06:25:12;24.1;;;21.1;;
36833;SDS011;48003;52.084;5.224;2022-08-18T06:28:39;23.7;;;21.2;;
36833;SDS011;48003;52.084;5.224;2022-08-18T06:30:39;23.3;;;20.9;;
36833;SDS011;48003;52.084;5.224;2022-08-18T06:32:29;21.9;;;19.7;;
36833;SDS011;48003;52.084;5.224;2022-08-18T06:34:20;23.3;;;20.41;;
36833;SDS011;48003;52.084;5.224;2022-08-18T06:36:09;22.7;;;20.5;;
36833;SDS011;48003;52.084;5.224;2022-08-18T06:39:01;20.2;;;18.2;;
36833;SDS011;48003;52.084;5.224;2022-08-18T06:40:46;19.91;;;17.5;;
36833;SDS011;48003;52.084;5.224;2022-08-18T06:42:29;19.8;;;17.7;;
36833;SDS011;48003;52.084;5.224;2022-08-18T06:44:07;18.2;;;16.4;;
36833;SDS011;48003;52.084;5.224;2022-08-18T06:47:30;18.61;;;16.7;;
36833;SDS011;48003;52.084;5.224;2022-08-18T06:49:20;19.8;;;17.7;;
36833;SDS011;48003;52.084;5.224;2022-08-18T06:51:10;18.0;;;16.11;;
36833;SDS011;48003;52.084;5.224;2022-08-18T06:52:52;19.7;;;16.3;;
36833;SDS011;48003;52.084;5.224;2022-08-18T06:54:31;19.7;;;16.5;;
36833;SDS011;48003;52.084;5.224;2022-08-18T06:57:59;19.3;;;16.7;;
36833;SDS011;48003;52.084;5.224;2022-08-18T06:59:38;17.5;;;14.1;;
36833;SDS011;48003;52.084;5.224;2022-08-18T07:01:15;15.1;;;13.6;;
36833;SDS011;48003;52.084;5.224;2022-08-18T07:02:54;16.4;;;13.8;;
36833;SDS011;48003;52.084;5.224;2022-08-18T07:08:11;13.6;;;12.1;;
36833;SDS011;48003;52.084;5.224;2022-08-18T07:09:50;15.1;;;11.4;;
36833;SDS011;48003;52.084;5.224;2022-08-18T07:11:30;12.5;;;10.5;;
36833;SDS011;48003;52.084;5.224;2022-08-18T07:13:24;21.0;;;17.8;;
36833;SDS011;48003;52.084;5.224;2022-08-18T07:16:41;13.8;;;11.8;;
36833;SDS011;48003;52.084;5.224;2022-08-18T07:18:22;12.0;;;10.4;;
36833;SDS011;48003;52.084;5.224;2022-08-18T07:20:04;12.9;;;10.8;;
36833;SDS011;48003;52.084;5.224;2022-08-18T07:21:44;12.1;;;10.0;;
36833;SDS011;48003;52.084;5.224;2022-08-18T07:25:03;11.3;;;10.1;;
36833;SDS011;48003;52.084;5.224;2022-08-18T07:26:57;11.9;;;10.0;;
36833;SDS011;48003;52.084;5.224;2022-08-18T07:28:37;11.4;;;9.6;;
36833;SDS011;48003;52.084;5.224;2022-08-18T07:30:34;11.9;;;10.0;;
36833;SDS011;48003;52.084;5.224;2022-08-18T07:32:14;12.6;;;9.4;;
36833;SDS011;48003;52.084;5.224;2022-08-18T07:33:58;11.1;;;9.31;;
36833;SDS011;48003;52.084;5.224;2022-08-18T07:37:23;10.0;;;8.5;;
36833;SDS011;48003;52.084;5.224;2022-08-18T07:39:05;11.4;;;8.9;;
36833;SDS011;48003;52.084;5.224;2022-08-18T07:40:56;12.6;;;9.71;;
36833;SDS011;48003;52.084;5.224;2022-08-18T07:42:41;11.9;;;9.71;;
36833;SDS011;48003;52.084;5.224;2022-08-18T07:44:24;13.6;;;9.9;;
36833;SDS011;48003;52.084;5.224;2022-08-18T07:48:09;13.7;;;10.8;;
36833;SDS011;48003;52.084;5.224;2022-08-18T07:49:49;10.6;;;9.5;;
36833;SDS011;48003;52.084;5.224;2022-08-18T07:51:28;10.6;;;8.5;;
36833;SDS011;48003;52.084;5.224;2022-08-18T07:53:20;12.1;;;8.1;;
36833;SDS011;48003;52.084;5.224;2022-08-18T07:55:09;10.0;;;6.7;;
36833;SDS011;48003;52.084;5.224;2022-08-18T07:57:02;8.6;;;6.7;;
36833;SDS011;48003;52.084;5.224;2022-08-18T08:00:33;7.7;;;6.6;;
36833;SDS011;48003;52.084;5.224;2022-08-18T08:02:24;6.6;;;5.9;;
36833;SDS011;48003;52.084;5.224;2022-08-18T08:04:11;8.0;;;5.4;;
36833;SDS011;48003;52.084;5.224;2022-08-18T08:05:53;10.9;;;8.31;;
36833;SDS011;48003;52.084;5.224;2022-08-18T08:07:44;7.9;;;5.6;;
36833;SDS011;48003;52.084;5.224;2022-08-18T08:09:32;7.1;;;6.4;;
36833;SDS011;48003;52.084;5.224;2022-08-18T08:13:17;7.3;;;5.2;;
36833;SDS011;48003;52.084;5.224;2022-08-18T08:15:11;7.3;;;5.5;;
36833;SDS011;48003;52.084;5.224;2022-08-18T08:16:58;6.7;;;5.4;;
36833;SDS011;48003;52.084;5.224;2022-08-18T08:18:45;6.9;;;5.4;;
36833;SDS011;48003;52.084;5.224;2022-08-18T08:20:35;6.9;;;5.9;;
36833;SDS011;48003;52.084;5.224;2022-08-18T08:22:18;8.2;;;6.2;;
36833;SDS011;48003;52.084;5.224;2022-08-18T08:25:59;8.5;;;6.4;;
36833;SDS011;48003;52.084;5.224;2022-08-18T08:28:02;8.5;;;5.8;;
36833;SDS011;48003;52.084;5.224;2022-08-18T08:29:53;7.3;;;5.9;;
36833;SDS011;48003;52.084;5.224;2022-08-18T08:31:43;8.5;;;5.7;;
36833;SDS011;48003;52.084;5.224;2022-08-18T08:33:26;8.6;;;5.5;;
36833;SDS011;48003;52.084;5.224;2022-08-18T08:35:13;7.2;;;5.8;;
36833;SDS011;48003;52.084;5.224;2022-08-18T08:36:56;7.8;;;5.9;;
36833;SDS011;48003;52.084;5.224;2022-08-18T08:40:21;6.8;;;5.5;;
36833;SDS011;48003;52.084;5.224;2022-08-18T08:42:04;5.9;;;5.3;;
36833;SDS011;48003;52.084;5.224;2022-08-18T08:43:48;5.8;;;5.11;;
36833;SDS011;48003;52.084;5.224;2022-08-18T08:45:36;8.0;;;6.1;;
36833;SDS011;48003;52.084;5.224;2022-08-18T08:47:18;8.31;;;5.7;;
36833;SDS011;48003;52.084;5.224;2022-08-18T08:50:54;5.4;;;4.91;;
36833;SDS011;48003;52.084;5.224;2022-08-18T08:52:37;6.7;;;5.3;;
36833;SDS011;48003;52.084;5.224;2022-08-18T08:54:22;6.0;;;5.4;;
36833;SDS011;48003;52.084;5.224;2022-08-18T08:56:06;6.9;;;5.6;;
36833;SDS011;48003;52.084;5.224;2022-08-18T08:57:47;6.0;;;4.8;;
36833;SDS011;48003;52.084;5.224;2022-08-18T09:01:04;6.3;;;5.2;;
36833;SDS011;48003;52.084;5.224;2022-08-18T09:03:01;6.0;;;5.11;;
36833;SDS011;48003;52.084;5.224;2022-08-18T09:04:54;6.3;;;4.8;;
36833;SDS011;48003;52.084;5.224;2022-08-18T09:06:41;6.0;;;5.2;;
36833;SDS011;48003;52.084;5.224;2022-08-18T09:08:43;5.3;;;4.7;;
36833;SDS011;48003;52.084;5.224;2022-08-18T09:10:55;6.0;;;4.41;;
36833;SDS011;48003;52.084;5.224;2022-08-18T09:14:14;5.7;;;4.8;;
36833;SDS011;48003;52.084;5.224;2022-08-18T09:17:51;7.1;;;6.3;;
36833;SDS011;48003;52.084;5.224;2022-08-18T09:20:23;5.6;;;4.41;;
36833;SDS011;48003;52.084;5.224;2022-08-18T09:22:14;6.8;;;4.8;;
36833;SDS011;48003;52.084;5.224;2022-08-18T09:24:05;6.1;;;4.2;;
36833;SDS011;48003;52.084;5.224;2022-08-18T09:25:52;7.5;;;4.1;;
36833;SDS011;48003;52.084;5.224;2022-08-18T09:27:34;5.0;;;3.4;;
36833;SDS011;48003;52.084;5.224;2022-08-18T09:29:24;5.5;;;3.8;;
36833;SDS011;48003;52.084;5.224;2022-08-18T09:31:21;4.0;;;3.0;;
36833;SDS011;48003;52.084;5.224;2022-08-18T09:35:18;3.5;;;3.2;;
36833;SDS011;48003;52.084;5.224;2022-08-18T09:37:15;5.0;;;3.6;;
36833;SDS011;48003;52.084;5.224;2022-08-18T09:41:50;4.5;;;3.5;;
36833;SDS011;48003;52.084;5.224;2022-08-18T09:45:39;3.8;;;3.4;;
36833;SDS011;48003;52.084;5.224;2022-08-18T09:48:20;4.0;;;3.1;;
36833;SDS011;48003;52.084;5.224;2022-08-18T09:50:31;2.9;;;2.6;;
36833;SDS011;48003;52.084;5.224;2022-08-18T09:52:46;7.3;;;2.9;;
36833;SDS011;48003;52.084;5.224;2022-08-18T09:54:24;3.5;;;3.2;;
36833;SDS011;48003;52.084;5.224;2022-08-18T09:57:40;3.3;;;3.0;;
36833;SDS011;48003;52.084;5.224;2022-08-18T09:59:30;3.2;;;2.6;;
36833;SDS011;48003;52.084;5.224;2022-08-18T10:01:34;3.8;;;2.7;;
36833;SDS011;48003;52.084;5.224;2022-08-18T10:03:21;6.3;;;4.7;;
36833;SDS011;48003;52.084;5.224;2022-08-18T10:05:21;4.41;;;3.5;;
36833;SDS011;48003;52.084;5.224;2022-08-18T10:07:19;4.41;;;3.2;;
36833;SDS011;48003;52.084;5.224;2022-08-18T10:09:13;4.3;;;3.1;;
36833;SDS011;48003;52.084;5.224;2022-08-18T10:11:07;4.91;;;3.2;;
36833;SDS011;48003;52.084;5.224;2022-08-18T10:13:03;4.2;;;3.8;;
36833;SDS011;48003;52.084;5.224;2022-08-18T10:17:32;3.6;;;3.3;;
36833;SDS011;48003;52.084;5.224;2022-08-18T10:19:25;4.0;;;3.6;;
36833;SDS011;48003;52.084;5.224;2022-08-18T10:22:55;5.2;;;3.4;;
36833;SDS011;48003;52.084;5.224;2022-08-18T10:24:34;4.91;;;3.1;;
36833;SDS011;48003;52.084;5.224;2022-08-18T10:27:33;4.8;;;3.6;;
36833;SDS011;48003;52.084;5.224;2022-08-18T10:29:55;6.6;;;3.3;;
36833;SDS011;48003;52.084;5.224;2022-08-18T10:32:23;6.0;;;4.91;;
36833;SDS011;48003;52.084;5.224;2022-08-18T10:34:35;4.8;;;4.1;;
36833;SDS011;48003;52.084;5.224;2022-08-18T10:36:29;5.8;;;4.1;;
36833;SDS011;48003;52.084;5.224;2022-08-18T10:38:12;4.91;;;3.6;;
36833;SDS011;48003;52.084;5.224;2022-08-18T10:41:44;4.91;;;3.6;;
36833;SDS011;48003;52.084;5.224;2022-08-18T10:43:33;5.9;;;3.6;;
36833;SDS011;48003;52.084;5.224;2022-08-18T10:45:18;5.2;;;3.4;;
36833;SDS011;48003;52.084;5.224;2022-08-18T10:46:59;5.11;;;3.5;;
36833;SDS011;48003;52.084;5.224;2022-08-18T10:48:38;3.7;;;2.8;;
36833;SDS011;48003;52.084;5.224;2022-08-18T10:52:03;3.3;;;2.7;;
36833;SDS011;48003;52.084;5.224;2022-08-18T10:55:30;3.9;;;3.1;;
36833;SDS011;48003;52.084;5.224;2022-08-18T10:57:40;5.7;;;3.5;;
36833;SDS011;48003;52.084;5.224;2022-08-18T11:00:50;3.7;;;3.0;;
36833;SDS011;48003;52.084;5.224;2022-08-18T11:02:43;4.91;;;2.9;;
36833;SDS011;48003;52.084;5.224;2022-08-18T11:04:45;3.8;;;2.9;;
36833;SDS011;48003;52.084;5.224;2022-08-18T11:06:25;4.2;;;3.2;;
36833;SDS011;48003;52.084;5.224;2022-08-18T11:08:03;4.2;;;3.2;;
36833;SDS011;48003;52.084;5.224;2022-08-18T11:09:42;3.2;;;2.9;;
36833;SDS011;48003;52.084;5.224;2022-08-18T11:13:02;8.2;;;7.4;;
36833;SDS011;48003;52.084;5.224;2022-08-18T11:14:51;9.31;;;6.3;;
36833;SDS011;48003;52.084;5.224;2022-08-18T11:16:51;3.8;;;3.1;;
36833;SDS011;48003;52.084;5.224;2022-08-18T11:18:41;3.2;;;2.9;;
36833;SDS011;48003;52.084;5.224;2022-08-18T11:20:21;3.9;;;3.2;;
36833;SDS011;48003;52.084;5.224;2022-08-18T11:22:02;5.7;;;3.3;;
36833;SDS011;48003;52.084;5.224;2022-08-18T11:25:19;4.3;;;2.8;;
36833;SDS011;48003;52.084;5.224;2022-08-18T11:27:01;6.1;;;2.8;;
36833;SDS011;48003;52.084;5.224;2022-08-18T11:28:54;4.0;;;2.6;;
36833;SDS011;48003;52.084;5.224;2022-08-18T11:30:31;3.1;;;2.8;;
36833;SDS011;48003;52.084;5.224;2022-08-18T11:33:59;3.4;;;2.7;;
36833;SDS011;48003;52.084;5.224;2022-08-18T11:35:43;3.5;;;2.6;;
36833;SDS011;48003;52.084;5.224;2022-08-18T11:37:24;3.6;;;2.8;;
36833;SDS011;48003;52.084;5.224;2022-08-18T11:39:08;3.8;;;2.5;;
36833;SDS011;48003;52.084;5.224;2022-08-18T11:40:48;5.4;;;2.9;;
36833;SDS011;48003;52.084;5.224;2022-08-18T11:44:11;5.7;;;2.8;;
36833;SDS011;48003;52.084;5.224;2022-08-18T11:45:59;4.2;;;2.4;;
36833;SDS011;48003;52.084;5.224;2022-08-18T11:48:21;3.8;;;2.8;;
36833;SDS011;48003;52.084;5.224;2022-08-18T11:50:12;6.8;;;5.2;;
36833;SDS011;48003;52.084;5.224;2022-08-18T11:51:53;4.8;;;2.7;;
36833;SDS011;48003;52.084;5.224;2022-08-18T11:53:35;6.0;;;2.5;;
36833;SDS011;48003;52.084;5.224;2022-08-18T11:57:37;4.41;;;2.4;;
36833;SDS011;48003;52.084;5.224;2022-08-18T11:59:41;2.8;;;2.0;;
36833;SDS011;48003;52.084;5.224;2022-08-18T12:03:16;3.0;;;2.31;;
36833;SDS011;48003;52.084;5.224;2022-08-18T12:05:02;4.1;;;2.5;;
36833;SDS011;48003;52.084;5.224;2022-08-18T12:06:39;2.4;;;2.21;;
36833;SDS011;48003;52.084;5.224;2022-08-18T12:08:30;4.8;;;2.6;;
36833;SDS011;48003;52.084;5.224;2022-08-18T12:10:15;3.7;;;2.5;;
36833;SDS011;48003;52.084;5.224;2022-08-18T12:13:43;3.7;;;2.5;;
36833;SDS011;48003;52.084;5.224;2022-08-18T12:15:25;2.9;;;2.4;;
36833;SDS011;48003;52.084;5.224;2022-08-18T12:17:06;2.9;;;2.31;;
36833;SDS011;48003;52.084;5.224;2022-08-18T12:18:43;4.2;;;2.31;;
36833;SDS011;48003;52.084;5.224;2022-08-18T12:21:58;2.7;;;2.1;;
36833;SDS011;48003;52.084;5.224;2022-08-18T12:23:37;4.1;;;2.31;;
36833;SDS011;48003;52.084;5.224;2022-08-18T12:25:16;3.9;;;2.1;;
36833;SDS011;48003;52.084;5.224;2022-08-18T12:26:55;2.7;;;1.9;;
36833;SDS011;48003;52.084;5.224;2022-08-18T12:30:10;3.1;;;1.9;;
36833;SDS011;48003;52.084;5.224;2022-08-18T12:31:49;3.2;;;2.0;;
36833;SDS011;48003;52.084;5.224;2022-08-18T12:33:28;3.1;;;2.1;;
36833;SDS011;48003;52.084;5.224;2022-08-18T12:36:43;3.2;;;2.31;;
36833;SDS011;48003;52.084;5.224;2022-08-18T12:38:19;2.31;;;2.0;;
36833;SDS011;48003;52.084;5.224;2022-08-18T12:39:56;2.9;;;2.31;;
36833;SDS011;48003;52.084;5.224;2022-08-18T12:41:33;4.91;;;2.21;;
36833;SDS011;48003;52.084;5.224;2022-08-18T12:44:47;4.2;;;2.5;;
36833;SDS011;48003;52.084;5.224;2022-08-18T12:46:24;2.6;;;2.1;;
36833;SDS011;48003;52.084;5.224;2022-08-18T12:48:01;3.0;;;2.0;;
36833;SDS011;48003;52.084;5.224;2022-08-18T12:51:15;3.1;;;2.0;;
36833;SDS011;48003;52.084;5.224;2022-08-18T12:52:51;2.1;;;1.9;;
36833;SDS011;48003;52.084;5.224;2022-08-18T12:54:28;3.7;;;1.9;;
36833;SDS011;48003;52.084;5.224;2022-08-18T12:56:05;2.8;;;2.0;;
36833;SDS011;48003;52.084;5.224;2022-08-18T12:59:20;2.8;;;2.0;;
36833;SDS011;48003;52.084;5.224;2022-08-18T13:00:55;2.1;;;1.8;;
36833;SDS011;48003;52.084;5.224;2022-08-18T13:02:32;2.8;;;1.8;;
36833;SDS011;48003;52.084;5.224;2022-08-18T13:05:44;3.1;;;1.8;;
36833;SDS011;48003;52.084;5.224;2022-08-18T13:07:21;3.0;;;1.7;;
36833;SDS011;48003;52.084;5.224;2022-08-18T13:08:57;2.7;;;1.9;;
36833;SDS011;48003;52.084;5.224;2022-08-18T13:12:11;4.3;;;1.9;;
36833;SDS011;48003;52.084;5.224;2022-08-18T13:13:48;3.2;;;1.9;;